• Join FlightAware (Why Join?)
  • Login
  • US Flag 
09:32AM EST


 

Airport Tracker/Info


-or-


 

Live Flight TrackerFlight Track Log ✈ N152SW ✈ 28-Apr-2013 ✈ KMQI - KGSO

Flight Track Log - Related Links

Times and Time Zones

All times are in EDT time to prevent confusion due to time zone crossing. See the N152SW flight status page for this flight to view local times or setup timezone preferences in your user account.

Time Position Orientation Groundspeed Altitude Reporting Facility
EDT Latitude Longitude Course Direction KTS MPH feet Rate Location/Type
03:27PM 35.9547 -76.0564 261° West 140 161 3,000  Level Washington Center
03:28PM 35.9567 -76.1028 273° West 140 161 3,500 540 Climbing Washington Center
03:29PM 35.9608 -76.1411 278° West 129 148 4,200 660 Climbing Washington Center
03:30PM 35.9606 -76.1797 270° West 119 137 4,900 660 Climbing Washington Center
03:31PM 35.9603 -76.2106 269° West 104 120 5,600 660 Climbing Washington Center
03:32PM 35.9244 -75.9374 280° West  Level FlightAware Approximate
03:32PM 35.9353 -76.2153 189° South 70 81 6,200  Level Washington Center
03:33PM 35.9194 -75.9781 261° West  Level FlightAware Approximate
03:33PM 35.9372 -76.2589 273° West 83 96 6,200  Level Washington Center
03:34PM 35.9431 -76.3000 280° West 111 128 6,400 -180 Climbing Washington Center
03:35PM 35.9492 -76.3514 278° West 133 153 5,900 -300 Descending Washington Center
03:36PM 35.9550 -76.4003 278° West 147 169 5,900 60 Level Washington Center
03:37PM 35.9547 -76.4492 270° West 147 169 6,100 60 Climbing Washington Center
03:38PM 35.9586 -76.4978 276° West 147 169 6,100  Level Washington Center
03:39PM 35.9603 -76.5467 272° West 142 163 6,100  Level Washington Center
03:40PM 35.9642 -76.5928 276° West 142 163 6,100  Level Washington Center
03:41PM 35.9658 -76.6417 272° West 142 163 6,100 -60 Level Washington Center
03:42PM 35.9675 -76.6878 273° West 142 163 6,000 -60 Descending Washington Center
03:43PM 35.9711 -76.7392 275° West 142 163 6,000  Level Washington Center
03:44PM 35.9728 -76.7856 273° West 142 163 6,000 -60 Level Washington Center
03:45PM 35.9744 -76.8317 273° West 142 163 5,900 -120 Descending Washington Center
03:46PM 35.9781 -76.8781 276° West 142 163 5,800  Descending Washington Center
03:47PM 35.9817 -76.9242 276° West 142 163 5,900 60 Climbing Washington Center
03:48PM 35.9853 -76.9678 276° West 142 163 6,000  Climbing Washington Center
03:49PM 35.9892 -77.0142 276° West 142 163 6,000  Level Washington Center
03:50PM 35.9822 -77.0525 257° West 135 155 6,000 -60 Level Washington Center
03:51PM 35.9733 -77.1064 258° West 135 155 5,900  Descending Washington Center
03:52PM 35.9458 -77.1289 214° Southwest 130 150 6,100 60 Climbing Washington Center
03:53PM 35.9186 -77.1514 214° Southwest 125 144 6,100  Level Washington Center
03:54PM 35.9033 -77.1922 245° Southwest 130 150 6,200 -60 Climbing Washington Center
03:55PM 35.9111 -77.2383 282° West 125 144 6,000 -120 Descending Washington Center
03:56PM 35.9167 -77.2822 279° West 125 144 6,000  Level Washington Center
03:57PM 35.9222 -77.3283 278° West 137 158 6,100  Climbing Washington Center
03:58PM 35.9278 -77.3772 278° West 137 158 6,100  Level Washington Center
03:59PM 35.9333 -77.4261 278° West 142 163 6,100 -60 Level Washington Center
04:00PM 35.9369 -77.4725 276° West 142 163 6,000 -60 Descending Washington Center
04:01PM 35.9383 -77.5186 272° West 142 163 6,000 -60 Level Washington Center
04:02PM 35.9458 -77.5650 281° West 142 163 5,900 -60 Descending Washington Center
04:03PM 35.9472 -77.6111 272° West 142 163 5,900  Level Washington Center
04:04PM 35.9525 -77.6575 278° West 142 163 5,900  Level Washington Center
04:05PM 35.9561 -77.7014 276° West 142 163 6,000  Climbing Washington Center
04:06PM 35.9614 -77.7475 278° West 137 158 5,900  Descending Washington Center
04:07PM 35.9711 -77.7942 284° West 142 163 6,000  Climbing Washington Center
04:08PM 35.9744 -77.8403 275° West 142 163 5,900 -60 Descending Washington Center
04:09PM 35.9797 -77.8817 279° West 142 163 5,900  Level Washington Center
04:10PM 35.9872 -77.9281 281° West 142 163 5,900  Level Washington Center
04:11PM 35.9928 -77.9717 279° West 142 163 5,900 -60 Level Washington Center
04:12PM 35.9961 -78.0103 276° West 133 153 5,800  Descending Washington Center
04:13PM 35.9992 -78.0567 275° West 134 154 5,900  Climbing Washington Center
04:14PM 36.0044 -78.1056 278° West 129 148 5,900  Level Washington Center
04:15PM 36.0081 -78.1417 277° West 127 146 6,000 60 Climbing Washington Center
04:16PM 36.0131 -78.1881 278° West 126 145 6,100  Climbing Washington Center
04:17PM 36.0186 -78.2319 279° West 128 147 6,000 -120 Descending Washington Center
04:18PM 36.0194 -78.2781 271° West 133 153 5,900  Descending Washington Center
04:19PM 36.0269 -78.3194 283° West 137 158 6,000  Climbing Washington Center
04:20PM 36.0300 -78.3711 274° West 137 158 6,000 -60 Level Washington Center
04:21PM 36.0436 -78.4153 291° West 147 169 5,900  Descending Washington Center
04:22PM 36.0614 -78.4569 298° West 139 160 6,000  Climbing Washington Center
04:23PM 36.0769 -78.4986 295° West 138 159 6,000  Level Washington Center
04:24PM 36.0967 -78.5431 299° West 139 160 6,100  Climbing Washington Center
04:25PM 36.1122 -78.5872 294° West 143 165 6,000 -120 Descending Washington Center
04:26PM 36.1319 -78.6344 297° West 141 162 5,900 -60 Descending Washington Center
04:27PM 36.1436 -78.6758 289° West 137 158 5,900  Level Washington Center
04:28PM 36.1444 -78.7222 271° West 131 151 5,900  Level Washington Center
04:29PM 36.1453 -78.7661 271° West 129 148 5,900  Level Washington Center
04:30PM 36.1419 -78.8122 265° West 133 153 6,000  Climbing Washington Center
04:31PM 36.1408 -78.8558 268° West 132 152 6,000 -60 Level Washington Center
04:32PM 36.1375 -78.9047 265° West 130 150 5,900 -60 Descending Washington Center
04:33PM 36.1361 -78.9483 268° West 128 147 5,900 -60 Level Washington Center
04:34PM 36.1350 -78.9894 268° West 127 146 5,800  Descending Washington Center
04:35PM 36.1336 -79.0331 268° West 124 143 6,000 60 Climbing Washington Center
04:36PM 36.1306 -79.0742 265° West 117 135 6,000  Level Washington Center
04:37PM 36.1292 -79.1178 268° West 125 144 6,000  Level Washington Center
04:38PM 36.1236 -79.1611 261° West 124 143 6,000 -60 Level Washington Center
04:39PM 36.1222 -79.2075 268° West 127 146 5,900 -60 Descending Washington Center
04:41PM 36.1189 -79.2536 265° West 129 148 5,900  Level Washington Center
04:42PM 36.1153 -79.2972 264° West 131 151 5,900  Level Washington Center
04:43PM 36.1161 -79.3408 271° West 126 145 5,900  Level Washington Center
04:44PM 36.1125 -79.3869 264° West 144 166 6,000  Climbing Washington Center
04:45PM 36.1153 -79.4308 274° West 122 140 5,900 -60 Descending Washington Center
04:46PM 36.1119 -79.4719 264° West 118 136 5,900  Level Washington Center
04:47PM 36.1128 -79.5131 271° West 122 140 5,900 60 Level Washington Center
04:48PM 36.1133 -79.5542 271° West 120 138 6,100 180 Climbing Washington Center
04:50PM 36.1001 -79.6506 270° West  Level FlightAware Approximate
04:57PM 36.1000 -79.9333 270° West  Level FlightAware Approximate
04:58PM 36.1013 -79.9411 270° West  Level Estimated
04:59PM 36.1000 -79.9333 270° West  Level FlightAware Approximate
05:00PM 36.1013 -79.9411 270° West  Level Estimated
05:01PM 36.1000 -79.9333 270° West  Level FlightAware Approximate
05:02PM 36.1013 -79.9411 270° West  Level Estimated
05:03PM 36.1000 -79.9333 270° West  Level FlightAware Approximate
05:04PM 36.1013 -79.9411 270° West  Level Estimated
05:05PM 36.1000 -79.9333 270° West  Level FlightAware Approximate
05:06PM 36.1013 -79.9411 270° West  Level Estimated
05:07PM 36.1000 -79.9333 270° West  Level FlightAware Approximate
05:08PM 36.1013 -79.9411 270° West  Level Estimated
05:09PM 36.1000 -79.9333 270° West  Level FlightAware Approximate
05:10PM 36.1013 -79.9411 270° West  Level Estimated
05:11PM 36.1000 -79.9333 270° West  Level FlightAware Approximate
05:12PM 36.1013 -79.9411 270° West  Level Estimated
05:13PM 36.1000 -79.9333 270° West  Level FlightAware Approximate
05:14PM 36.1013 -79.9411 270° West  Level Estimated